sensor_id;sensor_type;location;lat;lon;timestamp;temperature;humidity
37310;DHT22;23195;47.744;7.358;2023-04-06T00:00:48;2.20;99.90
37310;DHT22;23195;47.744;7.358;2023-04-06T00:03:17;2.20;99.90
37310;DHT22;23195;47.744;7.358;2023-04-06T00:05:47;2.20;99.90
37310;DHT22;23195;47.744;7.358;2023-04-06T00:08:15;2.20;99.90
37310;DHT22;23195;47.744;7.358;2023-04-06T00:10:49;2.20;99.90
37310;DHT22;23195;47.744;7.358;2023-04-06T00:13:14;1.50;99.90
37310;DHT22;23195;47.744;7.358;2023-04-06T00:15:40;2.10;99.90
37310;DHT22;23195;47.744;7.358;2023-04-06T00:18:17;2.10;99.90
37310;DHT22;23195;47.744;7.358;2023-04-06T00:20:52;2.10;99.90
37310;DHT22;23195;47.744;7.358;2023-04-06T00:23:18;2.10;99.90
37310;DHT22;23195;47.744;7.358;2023-04-06T00:25:53;2.10;99.90
37310;DHT22;23195;47.744;7.358;2023-04-06T00:28:23;1.90;99.90
37310;DHT22;23195;47.744;7.358;2023-04-06T00:30:52;2.00;99.90
37310;DHT22;23195;47.744;7.358;2023-04-06T00:33:25;2.00;99.90
37310;DHT22;23195;47.744;7.358;2023-04-06T00:35:53;0.50;99.90
37310;DHT22;23195;47.744;7.358;2023-04-06T00:38:19;2.00;99.90
37310;DHT22;23195;47.744;7.358;2023-04-06T00:40:47;2.00;99.90
37310;DHT22;23195;47.744;7.358;2023-04-06T00:43:36;0.70;99.90
37310;DHT22;23195;47.744;7.358;2023-04-06T00:46:02;1.90;99.90
37310;DHT22;23195;47.744;7.358;2023-04-06T00:48:31;1.90;99.90
37310;DHT22;23195;47.744;7.358;2023-04-06T00:50:58;1.80;99.90
37310;DHT22;23195;47.744;7.358;2023-04-06T00:53:25;2.20;99.90
37310;DHT22;23195;47.744;7.358;2023-04-06T00:55:51;1.80;99.90
37310;DHT22;23195;47.744;7.358;2023-04-06T00:58:17;1.70;99.90
37310;DHT22;23195;47.744;7.358;2023-04-06T01:00:50;1.70;99.90
37310;DHT22;23195;47.744;7.358;2023-04-06T01:03:16;1.60;99.90
37310;DHT22;23195;47.744;7.358;2023-04-06T01:05:42;1.70;99.90
37310;DHT22;23195;47.744;7.358;2023-04-06T01:08:11;1.60;99.90
37310;DHT22;23195;47.744;7.358;2023-04-06T01:10:40;1.70;99.90
37310;DHT22;23195;47.744;7.358;2023-04-06T01:13:06;1.60;99.90
37310;DHT22;23195;47.744;7.358;2023-04-06T01:15:35;1.70;99.90
37310;DHT22;23195;47.744;7.358;2023-04-06T01:18:11;1.60;99.90
37310;DHT22;23195;47.744;7.358;2023-04-06T01:20:37;1.60;99.90
37310;DHT22;23195;47.744;7.358;2023-04-06T01:23:05;1.60;99.90
37310;DHT22;23195;47.744;7.358;2023-04-06T01:25:34;0.50;99.90
37310;DHT22;23195;47.744;7.358;2023-04-06T01:28:00;1.60;99.90
37310;DHT22;23195;47.744;7.358;2023-04-06T01:30:29;1.60;99.90
37310;DHT22;23195;47.744;7.358;2023-04-06T01:32:58;1.50;99.90
37310;DHT22;23195;47.744;7.358;2023-04-06T01:35:29;1.50;99.90
37310;DHT22;23195;47.744;7.358;2023-04-06T01:37:57;1.50;99.90
37310;DHT22;23195;47.744;7.358;2023-04-06T01:40:39;1.50;99.90
37310;DHT22;23195;47.744;7.358;2023-04-06T01:43:05;1.50;99.90
37310;DHT22;23195;47.744;7.358;2023-04-06T01:45:30;1.40;99.90
37310;DHT22;23195;47.744;7.358;2023-04-06T01:48:07;1.40;99.90
37310;DHT22;23195;47.744;7.358;2023-04-06T01:50:40;1.40;99.90
37310;DHT22;23195;47.744;7.358;2023-04-06T01:53:06;1.40;99.90
37310;DHT22;23195;47.744;7.358;2023-04-06T01:55:32;1.30;99.90
37310;DHT22;23195;47.744;7.358;2023-04-06T01:57:59;1.40;99.90
37310;DHT22;23195;47.744;7.358;2023-04-06T02:00:27;1.30;99.90
37310;DHT22;23195;47.744;7.358;2023-04-06T02:02:56;1.30;99.90
37310;DHT22;23195;47.744;7.358;2023-04-06T02:05:22;1.30;99.90
37310;DHT22;23195;47.744;7.358;2023-04-06T02:07:48;1.20;99.90
37310;DHT22;23195;47.744;7.358;2023-04-06T02:10:14;1.10;99.90
37310;DHT22;23195;47.744;7.358;2023-04-06T02:12:52;1.10;99.90
37310;DHT22;23195;47.744;7.358;2023-04-06T02:15:23;1.10;99.90
37310;DHT22;23195;47.744;7.358;2023-04-06T02:17:49;2.50;99.90
37310;DHT22;23195;47.744;7.358;2023-04-06T02:20:15;1.10;99.90
37310;DHT22;23195;47.744;7.358;2023-04-06T02:22:41;0.50;99.90
37310;DHT22;23195;47.744;7.358;2023-04-06T02:25:07;1.10;99.90
37310;DHT22;23195;47.744;7.358;2023-04-06T02:27:33;1.10;99.90
37310;DHT22;23195;47.744;7.358;2023-04-06T02:29:59;1.10;99.90
37310;DHT22;23195;47.744;7.358;2023-04-06T02:32:25;1.10;99.90
37310;DHT22;23195;47.744;7.358;2023-04-06T02:34:51;1.00;99.90
37310;DHT22;23195;47.744;7.358;2023-04-06T02:37:20;1.00;99.90
37310;DHT22;23195;47.744;7.358;2023-04-06T02:39:51;1.00;99.90
37310;DHT22;23195;47.744;7.358;2023-04-06T02:42:17;0.90;99.90
37310;DHT22;23195;47.744;7.358;2023-04-06T02:44:43;0.90;99.90
37310;DHT22;23195;47.744;7.358;2023-04-06T02:47:09;0.90;99.90
37310;DHT22;23195;47.744;7.358;2023-04-06T02:49:35;0.90;99.90
37310;DHT22;23195;47.744;7.358;2023-04-06T02:52:04;0.80;99.90
37310;DHT22;23195;47.744;7.358;2023-04-06T02:54:32;0.80;99.90
37310;DHT22;23195;47.744;7.358;2023-04-06T02:57:01;0.80;99.90
37310;DHT22;23195;47.744;7.358;2023-04-06T02:59:27;0.80;99.90
37310;DHT22;23195;47.744;7.358;2023-04-06T03:01:56;0.80;99.90
37310;DHT22;23195;47.744;7.358;2023-04-06T03:04:21;0.80;99.90
37310;DHT22;23195;47.744;7.358;2023-04-06T03:06:51;0.80;99.90
37310;DHT22;23195;47.744;7.358;2023-04-06T03:09:17;0.80;99.90
37310;DHT22;23195;47.744;7.358;2023-04-06T03:11:43;0.70;99.90
37310;DHT22;23195;47.744;7.358;2023-04-06T03:14:09;0.70;99.90
37310;DHT22;23195;47.744;7.358;2023-04-06T03:16:37;0.60;99.90
37310;DHT22;23195;47.744;7.358;2023-04-06T03:19:05;0.70;99.90
37310;DHT22;23195;47.744;7.358;2023-04-06T03:21:33;0.70;99.90
37310;DHT22;23195;47.744;7.358;2023-04-06T03:23:59;0.70;99.90
37310;DHT22;23195;47.744;7.358;2023-04-06T03:26:25;0.70;99.90
37310;DHT22;23195;47.744;7.358;2023-04-06T03:28:51;0.70;99.90
37310;DHT22;23195;47.744;7.358;2023-04-06T03:31:19;0.70;99.90
37310;DHT22;23195;47.744;7.358;2023-04-06T03:33:48;0.80;99.90
37310;DHT22;23195;47.744;7.358;2023-04-06T03:36:16;0.60;99.90
37310;DHT22;23195;47.744;7.358;2023-04-06T03:38:44;0.70;99.90
37310;DHT22;23195;47.744;7.358;2023-04-06T03:41:16;0.60;99.90
37310;DHT22;23195;47.744;7.358;2023-04-06T03:43:47;0.60;99.90
37310;DHT22;23195;47.744;7.358;2023-04-06T03:46:18;0.60;99.90
37310;DHT22;23195;47.744;7.358;2023-04-06T03:48:48;1.40;99.90
37310;DHT22;23195;47.744;7.358;2023-04-06T03:51:17;0.50;99.90
37310;DHT22;23195;47.744;7.358;2023-04-06T03:53:45;0.50;99.90
37310;DHT22;23195;47.744;7.358;2023-04-06T03:56:17;0.50;99.90
37310;DHT22;23195;47.744;7.358;2023-04-06T03:58:48;0.50;99.90
37310;DHT22;23195;47.744;7.358;2023-04-06T04:01:17;0.50;99.90
37310;DHT22;23195;47.744;7.358;2023-04-06T04:03:46;0.60;99.90
37310;DHT22;23195;47.744;7.358;2023-04-06T04:06:11;0.60;99.90
37310;DHT22;23195;47.744;7.358;2023-04-06T04:08:43;0.50;99.90
37310;DHT22;23195;47.744;7.358;2023-04-06T04:11:16;0.50;99.90
37310;DHT22;23195;47.744;7.358;2023-04-06T04:13:42;0.50;99.90
37310;DHT22;23195;47.744;7.358;2023-04-06T04:16:08;0.50;99.90
37310;DHT22;23195;47.744;7.358;2023-04-06T04:18:37;0.40;99.90
37310;DHT22;23195;47.744;7.358;2023-04-06T04:21:06;-0.60;99.90
37310;DHT22;23195;47.744;7.358;2023-04-06T04:23:39;1.30;99.90
37310;DHT22;23195;47.744;7.358;2023-04-06T04:26:10;0.30;99.90
37310;DHT22;23195;47.744;7.358;2023-04-06T04:28:38;0.40;99.90
37310;DHT22;23195;47.744;7.358;2023-04-06T04:31:09;0.40;99.90
37310;DHT22;23195;47.744;7.358;2023-04-06T04:33:52;0.40;99.90
37310;DHT22;23195;47.744;7.358;2023-04-06T04:36:29;0.40;99.90
37310;DHT22;23195;47.744;7.358;2023-04-06T04:38:58;0.40;99.90
37310;DHT22;23195;47.744;7.358;2023-04-06T04:41:34;0.40;99.90
37310;DHT22;23195;47.744;7.358;2023-04-06T04:44:00;0.40;99.90
37310;DHT22;23195;47.744;7.358;2023-04-06T04:46:29;0.40;99.90
37310;DHT22;23195;47.744;7.358;2023-04-06T04:49:00;0.40;99.90
37310;DHT22;23195;47.744;7.358;2023-04-06T04:51:31;0.40;99.90
37310;DHT22;23195;47.744;7.358;2023-04-06T04:53:58;-0.40;99.90
37310;DHT22;23195;47.744;7.358;2023-04-06T04:56:24;0.40;99.90
37310;DHT22;23195;47.744;7.358;2023-04-06T04:58:55;0.40;99.90
37310;DHT22;23195;47.744;7.358;2023-04-06T05:01:23;0.40;99.90
37310;DHT22;23195;47.744;7.358;2023-04-06T05:03:57;0.30;99.90
37310;DHT22;23195;47.744;7.358;2023-04-06T05:06:33;0.50;99.90
37310;DHT22;23195;47.744;7.358;2023-04-06T05:08:59;0.40;99.90
37310;DHT22;23195;47.744;7.358;2023-04-06T05:11:29;0.60;99.90
37310;DHT22;23195;47.744;7.358;2023-04-06T05:14:03;0.50;99.90
37310;DHT22;23195;47.744;7.358;2023-04-06T05:16:38;0.60;99.90
37310;DHT22;23195;47.744;7.358;2023-04-06T05:19:06;0.70;99.90
37310;DHT22;23195;47.744;7.358;2023-04-06T05:21:58;0.70;99.90
37310;DHT22;23195;47.744;7.358;2023-04-06T05:24:29;0.80;99.90
37310;DHT22;23195;47.744;7.358;2023-04-06T05:27:06;1.10;99.90
37310;DHT22;23195;47.744;7.358;2023-04-06T05:29:35;1.00;99.90
37310;DHT22;23195;47.744;7.358;2023-04-06T05:32:10;1.10;99.90
37310;DHT22;23195;47.744;7.358;2023-04-06T05:34:37;1.20;99.90
37310;DHT22;23195;47.744;7.358;2023-04-06T05:37:08;1.90;99.90
37310;DHT22;23195;47.744;7.358;2023-04-06T05:39:40;1.40;99.90
37310;DHT22;23195;47.744;7.358;2023-04-06T05:42:08;1.50;99.90
37310;DHT22;23195;47.744;7.358;2023-04-06T05:44:37;1.60;99.90
37310;DHT22;23195;47.744;7.358;2023-04-06T05:47:04;1.80;99.90
37310;DHT22;23195;47.744;7.358;2023-04-06T05:49:32;1.90;99.90
37310;DHT22;23195;47.744;7.358;2023-04-06T05:52:01;2.10;99.90
37310;DHT22;23195;47.744;7.358;2023-04-06T05:54:48;2.10;99.90
37310;DHT22;23195;47.744;7.358;2023-04-06T05:57:16;2.20;99.90
37310;DHT22;23195;47.744;7.358;2023-04-06T05:59:57;2.20;99.90
37310;DHT22;23195;47.744;7.358;2023-04-06T06:02:42;2.40;99.90
37310;DHT22;23195;47.744;7.358;2023-04-06T06:05:18;2.00;99.90
37310;DHT22;23195;47.744;7.358;2023-04-06T06:07:54;2.60;99.90
37310;DHT22;23195;47.744;7.358;2023-04-06T06:10:40;2.80;99.90
37310;DHT22;23195;47.744;7.358;2023-04-06T06:13:15;3.60;99.90
37310;DHT22;23195;47.744;7.358;2023-04-06T06:15:51;3.10;99.90
37310;DHT22;23195;47.744;7.358;2023-04-06T06:18:30;3.30;99.90
37310;DHT22;23195;47.744;7.358;2023-04-06T06:21:13;3.40;99.90
37310;DHT22;23195;47.744;7.358;2023-04-06T06:23:59;3.60;99.90
37310;DHT22;23195;47.744;7.358;2023-04-06T06:26:33;3.70;99.90
37310;DHT22;23195;47.744;7.358;2023-04-06T06:29:22;3.80;99.90
37310;DHT22;23195;47.744;7.358;2023-04-06T06:31:49;3.60;99.90
37310;DHT22;23195;47.744;7.358;2023-04-06T06:34:15;4.00;99.90
37310;DHT22;23195;47.744;7.358;2023-04-06T06:36:49;4.20;99.90
37310;DHT22;23195;47.744;7.358;2023-04-06T06:39:22;4.30;99.90
37310;DHT22;23195;47.744;7.358;2023-04-06T06:41:48;4.50;99.90
37310;DHT22;23195;47.744;7.358;2023-04-06T06:44:14;4.60;99.90
37310;DHT22;23195;47.744;7.358;2023-04-06T06:46:43;4.70;99.90
37310;DHT22;23195;47.744;7.358;2023-04-06T06:49:12;4.80;99.90
37310;DHT22;23195;47.744;7.358;2023-04-06T06:51:40;4.90;99.90
37310;DHT22;23195;47.744;7.358;2023-04-06T06:54:09;5.70;99.90
37310;DHT22;23195;47.744;7.358;2023-04-06T06:56:38;6.10;99.90
37310;DHT22;23195;47.744;7.358;2023-04-06T06:59:04;5.10;99.90
37310;DHT22;23195;47.744;7.358;2023-04-06T07:01:32;5.20;99.90
37310;DHT22;23195;47.744;7.358;2023-04-06T07:04:13;5.40;99.90
37310;DHT22;23195;47.744;7.358;2023-04-06T07:06:42;5.10;99.90
37310;DHT22;23195;47.744;7.358;2023-04-06T07:09:13;6.30;99.90
37310;DHT22;23195;47.744;7.358;2023-04-06T07:11:44;7.90;99.90
37310;DHT22;23195;47.744;7.358;2023-04-06T07:14:10;9.70;99.90
37310;DHT22;23195;47.744;7.358;2023-04-06T07:16:56;11.00;96.80
37310;DHT22;23195;47.744;7.358;2023-04-06T07:19:22;11.60;92.30
37310;DHT22;23195;47.744;7.358;2023-04-06T07:21:54;11.00;91.50
37310;DHT22;23195;47.744;7.358;2023-04-06T07:24:20;11.80;92.40
37310;DHT22;23195;47.744;7.358;2023-04-06T07:26:46;13.00;89.40
37310;DHT22;23195;47.744;7.358;2023-04-06T07:29:13;13.60;86.70
37310;DHT22;23195;47.744;7.358;2023-04-06T07:31:39;14.20;84.40
37310;DHT22;23195;47.744;7.358;2023-04-06T07:34:08;15.60;79.00
37310;DHT22;23195;47.744;7.358;2023-04-06T07:36:40;16.20;72.70
37310;DHT22;23195;47.744;7.358;2023-04-06T07:39:07;16.50;72.40
37310;DHT22;23195;47.744;7.358;2023-04-06T07:41:32;17.10;67.40
37310;DHT22;23195;47.744;7.358;2023-04-06T07:44:01;17.60;67.60
37310;DHT22;23195;47.744;7.358;2023-04-06T07:46:27;18.50;61.80
37310;DHT22;23195;47.744;7.358;2023-04-06T07:48:53;18.50;59.10
37310;DHT22;23195;47.744;7.358;2023-04-06T07:51:19;18.70;59.10
37310;DHT22;23195;47.744;7.358;2023-04-06T07:53:45;18.70;59.10
37310;DHT22;23195;47.744;7.358;2023-04-06T07:56:14;18.80;57.70
37310;DHT22;23195;47.744;7.358;2023-04-06T07:58:46;19.20;57.00
37310;DHT22;23195;47.744;7.358;2023-04-06T08:01:12;18.70;56.70
37310;DHT22;23195;47.744;7.358;2023-04-06T08:03:40;17.70;58.70
37310;DHT22;23195;47.744;7.358;2023-04-06T08:06:06;17.10;59.10
37310;DHT22;23195;47.744;7.358;2023-04-06T08:08:37;16.40;60.40
37310;DHT22;23195;47.744;7.358;2023-04-06T08:11:03;15.80;62.10
37310;DHT22;23195;47.744;7.358;2023-04-06T08:13:32;15.70;63.00
37310;DHT22;23195;47.744;7.358;2023-04-06T08:15:58;15.60;63.20
37310;DHT22;23195;47.744;7.358;2023-04-06T08:18:25;15.20;65.00
37310;DHT22;23195;47.744;7.358;2023-04-06T08:20:51;15.20;64.90
37310;DHT22;23195;47.744;7.358;2023-04-06T08:23:17;15.10;65.30
37310;DHT22;23195;47.744;7.358;2023-04-06T08:25:50;14.90;66.20
37310;DHT22;23195;47.744;7.358;2023-04-06T08:28:20;14.50;67.20
37310;DHT22;23195;47.744;7.358;2023-04-06T08:30:48;14.70;67.30
37310;DHT22;23195;47.744;7.358;2023-04-06T08:33:14;15.00;67.30
37310;DHT22;23195;47.744;7.358;2023-04-06T08:35:50;15.40;66.60
37310;DHT22;23195;47.744;7.358;2023-04-06T08:38:16;15.90;66.50
37310;DHT22;23195;47.744;7.358;2023-04-06T08:40:44;14.90;64.00
37310;DHT22;23195;47.744;7.358;2023-04-06T08:43:19;15.70;65.70
37310;DHT22;23195;47.744;7.358;2023-04-06T08:45:48;15.20;67.00
37310;DHT22;23195;47.744;7.358;2023-04-06T08:48:17;15.80;66.70
37310;DHT22;23195;47.744;7.358;2023-04-06T08:50:49;16.10;65.00
37310;DHT22;23195;47.744;7.358;2023-04-06T08:53:16;16.30;66.50
37310;DHT22;23195;47.744;7.358;2023-04-06T08:55:46;16.60;64.50
37310;DHT22;23195;47.744;7.358;2023-04-06T08:58:12;15.90;65.00
37310;DHT22;23195;47.744;7.358;2023-04-06T09:00:45;15.50;66.40
37310;DHT22;23195;47.744;7.358;2023-04-06T09:03:12;15.60;66.40
37310;DHT22;23195;47.744;7.358;2023-04-06T09:05:41;15.60;67.10
37310;DHT22;23195;47.744;7.358;2023-04-06T09:08:07;15.40;67.90
37310;DHT22;23195;47.744;7.358;2023-04-06T09:10:33;15.40;65.70
37310;DHT22;23195;47.744;7.358;2023-04-06T09:13:05;15.20;63.40
37310;DHT22;23195;47.744;7.358;2023-04-06T09:15:31;14.80;62.70
37310;DHT22;23195;47.744;7.358;2023-04-06T09:18:01;14.60;63.40
37310;DHT22;23195;47.744;7.358;2023-04-06T09:20:27;13.90;62.00
37310;DHT22;23195;47.744;7.358;2023-04-06T09:22:56;13.80;63.00
37310;DHT22;23195;47.744;7.358;2023-04-06T09:25:29;14.60;63.50
37310;DHT22;23195;47.744;7.358;2023-04-06T09:28:02;14.60;62.90
37310;DHT22;23195;47.744;7.358;2023-04-06T09:30:32;14.70;62.50
37310;DHT22;23195;47.744;7.358;2023-04-06T09:33:01;14.70;61.10
37310;DHT22;23195;47.744;7.358;2023-04-06T09:35:39;14.50;61.00
37310;DHT22;23195;47.744;7.358;2023-04-06T09:39:01;14.40;60.50
37310;DHT22;23195;47.744;7.358;2023-04-06T09:41:32;14.20;61.70
37310;DHT22;23195;47.744;7.358;2023-04-06T09:44:11;14.30;62.40
37310;DHT22;23195;47.744;7.358;2023-04-06T09:46:41;14.10;62.60
37310;DHT22;23195;47.744;7.358;2023-04-06T09:49:13;14.00;62.80
37310;DHT22;23195;47.744;7.358;2023-04-06T09:52:12;14.00;62.00
37310;DHT22;23195;47.744;7.358;2023-04-06T09:54:56;14.00;63.30
37310;DHT22;23195;47.744;7.358;2023-04-06T10:01:02;14.20;63.30
37310;DHT22;23195;47.744;7.358;2023-04-06T10:03:54;14.20;64.20
37310;DHT22;23195;47.744;7.358;2023-04-06T10:09:27;14.30;60.50
37310;DHT22;23195;47.744;7.358;2023-04-06T10:11:58;14.00;60.70
37310;DHT22;23195;47.744;7.358;2023-04-06T10:14:33;13.90;60.90
37310;DHT22;23195;47.744;7.358;2023-04-06T10:17:02;14.20;62.10
37310;DHT22;23195;47.744;7.358;2023-04-06T10:23:00;14.10;61.70
37310;DHT22;23195;47.744;7.358;2023-04-06T10:25:28;14.10;62.10
37310;DHT22;23195;47.744;7.358;2023-04-06T10:28:08;14.30;62.60
37310;DHT22;23195;47.744;7.358;2023-04-06T10:30:37;14.40;61.70
37310;DHT22;23195;47.744;7.358;2023-04-06T10:33:18;14.40;61.80
37310;DHT22;23195;47.744;7.358;2023-04-06T10:35:47;14.60;61.00
37310;DHT22;23195;47.744;7.358;2023-04-06T10:38:13;14.90;62.10
37310;DHT22;23195;47.744;7.358;2023-04-06T10:40:46;14.90;61.60
37310;DHT22;23195;47.744;7.358;2023-04-06T10:43:26;15.00;62.00
37310;DHT22;23195;47.744;7.358;2023-04-06T10:46:00;14.90;62.10
37310;DHT22;23195;47.744;7.358;2023-04-06T10:48:40;14.70;62.00
37310;DHT22;23195;47.744;7.358;2023-04-06T10:51:14;14.60;61.70
37310;DHT22;23195;47.744;7.358;2023-04-06T10:53:47;13.60;61.00
37310;DHT22;23195;47.744;7.358;2023-04-06T10:56:24;14.60;61.80
37310;DHT22;23195;47.744;7.358;2023-04-06T10:58:57;14.80;61.40
37310;DHT22;23195;47.744;7.358;2023-04-06T11:01:25;15.10;60.60
37310;DHT22;23195;47.744;7.358;2023-04-06T11:03:55;15.30;59.70
37310;DHT22;23195;47.744;7.358;2023-04-06T11:06:30;15.20;60.00
37310;DHT22;23195;47.744;7.358;2023-04-06T11:08:58;15.10;59.50
37310;DHT22;23195;47.744;7.358;2023-04-06T11:11:29;15.00;59.70
37310;DHT22;23195;47.744;7.358;2023-04-06T11:13:59;14.90;59.80
37310;DHT22;23195;47.744;7.358;2023-04-06T11:16:30;14.70;61.00
37310;DHT22;23195;47.744;7.358;2023-04-06T11:18:58;14.90;61.20
37310;DHT22;23195;47.744;7.358;2023-04-06T11:21:44;15.00;60.40
37310;DHT22;23195;47.744;7.358;2023-04-06T11:24:19;15.10;60.60
37310;DHT22;23195;47.744;7.358;2023-04-06T11:26:50;15.30;60.80
37310;DHT22;23195;47.744;7.358;2023-04-06T11:29:25;15.20;59.20
37310;DHT22;23195;47.744;7.358;2023-04-06T11:32:01;15.20;60.60
37310;DHT22;23195;47.744;7.358;2023-04-06T11:34:29;15.10;61.00
37310;DHT22;23195;47.744;7.358;2023-04-06T11:37:07;15.10;60.40
37310;DHT22;23195;47.744;7.358;2023-04-06T11:39:51;15.10;59.40
37310;DHT22;23195;47.744;7.358;2023-04-06T11:42:26;15.10;59.80
37310;DHT22;23195;47.744;7.358;2023-04-06T11:44:56;15.30;58.90
37310;DHT22;23195;47.744;7.358;2023-04-06T11:47:33;16.20;58.80
37310;DHT22;23195;47.744;7.358;2023-04-06T11:50:11;15.40;58.90
37310;DHT22;23195;47.744;7.358;2023-04-06T11:52:40;15.60;58.40
37310;DHT22;23195;47.744;7.358;2023-04-06T11:55:18;15.60;58.70
37310;DHT22;23195;47.744;7.358;2023-04-06T11:57:50;15.70;58.20
37310;DHT22;23195;47.744;7.358;2023-04-06T12:00:17;15.70;58.60
37310;DHT22;23195;47.744;7.358;2023-04-06T12:02:47;15.70;59.00
37310;DHT22;23195;47.744;7.358;2023-04-06T12:05:13;15.70;59.40
37310;DHT22;23195;47.744;7.358;2023-04-06T12:07:39;15.70;58.10
37310;DHT22;23195;47.744;7.358;2023-04-06T12:10:08;15.70;58.70
37310;DHT22;23195;47.744;7.358;2023-04-06T12:12:41;15.50;58.50
37310;DHT22;23195;47.744;7.358;2023-04-06T12:15:24;15.40;59.30
37310;DHT22;23195;47.744;7.358;2023-04-06T12:17:50;15.70;59.30
37310;DHT22;23195;47.744;7.358;2023-04-06T12:20:16;15.90;59.20
37310;DHT22;23195;47.744;7.358;2023-04-06T12:23:05;16.00;58.30
37310;DHT22;23195;47.744;7.358;2023-04-06T12:25:31;16.20;58.40
37310;DHT22;23195;47.744;7.358;2023-04-06T12:28:08;16.10;58.40
37310;DHT22;23195;47.744;7.358;2023-04-06T12:31:02;15.80;57.20
37310;DHT22;23195;47.744;7.358;2023-04-06T12:33:33;16.30;58.20
37310;DHT22;23195;47.744;7.358;2023-04-06T12:35:59;16.50;57.20
37310;DHT22;23195;47.744;7.358;2023-04-06T12:38:25;16.30;57.00
37310;DHT22;23195;47.744;7.358;2023-04-06T12:40:54;16.40;57.50
37310;DHT22;23195;47.744;7.358;2023-04-06T12:43:20;16.30;57.70
37310;DHT22;23195;47.744;7.358;2023-04-06T12:46:07;16.50;57.90
37310;DHT22;23195;47.744;7.358;2023-04-06T12:48:33;16.30;57.90
37310;DHT22;23195;47.744;7.358;2023-04-06T12:51:21;16.30;58.70
37310;DHT22;23195;47.744;7.358;2023-04-06T12:53:52;16.40;58.90
37310;DHT22;23195;47.744;7.358;2023-04-06T12:56:27;16.40;58.00
37310;DHT22;23195;47.744;7.358;2023-04-06T12:59:04;16.60;59.00
37310;DHT22;23195;47.744;7.358;2023-04-06T13:01:30;16.70;58.20
37310;DHT22;23195;47.744;7.358;2023-04-06T13:03:59;16.60;58.20
37310;DHT22;23195;47.744;7.358;2023-04-06T13:06:25;16.50;58.40
37310;DHT22;23195;47.744;7.358;2023-04-06T13:08:57;16.30;58.30
37310;DHT22;23195;47.744;7.358;2023-04-06T13:11:23;16.30;58.10
37310;DHT22;23195;47.744;7.358;2023-04-06T13:13:51;16.30;59.00
37310;DHT22;23195;47.744;7.358;2023-04-06T13:16:23;16.30;59.00
37310;DHT22;23195;47.744;7.358;2023-04-06T13:18:56;16.30;58.90
37310;DHT22;23195;47.744;7.358;2023-04-06T13:21:22;15.00;58.80
37310;DHT22;23195;47.744;7.358;2023-04-06T13:23:48;16.20;58.50
37310;DHT22;23195;47.744;7.358;2023-04-06T13:26:14;16.00;59.00
37310;DHT22;23195;47.744;7.358;2023-04-06T13:28:40;16.10;59.50
37310;DHT22;23195;47.744;7.358;2023-04-06T13:31:10;15.70;59.30
37310;DHT22;23195;47.744;7.358;2023-04-06T13:33:39;16.20;58.80
37310;DHT22;23195;47.744;7.358;2023-04-06T13:36:07;16.40;58.30
37310;DHT22;23195;47.744;7.358;2023-04-06T13:38:35;16.20;58.50
37310;DHT22;23195;47.744;7.358;2023-04-06T13:41:08;16.60;58.70
37310;DHT22;23195;47.744;7.358;2023-04-06T13:43:41;16.70;59.40
37310;DHT22;23195;47.744;7.358;2023-04-06T13:46:10;16.30;58.70
37310;DHT22;23195;47.744;7.358;2023-04-06T13:48:36;17.00;59.90
37310;DHT22;23195;47.744;7.358;2023-04-06T13:51:22;16.50;59.00
37310;DHT22;23195;47.744;7.358;2023-04-06T13:53:47;16.60;59.20
37310;DHT22;23195;47.744;7.358;2023-04-06T13:56:22;15.50;58.70
37310;DHT22;23195;47.744;7.358;2023-04-06T13:58:48;16.80;60.20
37310;DHT22;23195;47.744;7.358;2023-04-06T14:01:14;17.00;60.00
37310;DHT22;23195;47.744;7.358;2023-04-06T14:03:40;16.80;58.80
37310;DHT22;23195;47.744;7.358;2023-04-06T14:06:11;16.70;59.30
37310;DHT22;23195;47.744;7.358;2023-04-06T14:08:37;16.70;60.10
37310;DHT22;23195;47.744;7.358;2023-04-06T14:11:03;16.50;60.70
37310;DHT22;23195;47.744;7.358;2023-04-06T14:13:29;16.30;60.70
37310;DHT22;23195;47.744;7.358;2023-04-06T14:15:58;16.20;61.40
37310;DHT22;23195;47.744;7.358;2023-04-06T14:18:29;15.90;60.40
37310;DHT22;23195;47.744;7.358;2023-04-06T14:20:57;15.90;60.50
37310;DHT22;23195;47.744;7.358;2023-04-06T14:23:23;16.00;61.60
37310;DHT22;23195;47.744;7.358;2023-04-06T14:26:07;16.00;60.00
37310;DHT22;23195;47.744;7.358;2023-04-06T14:28:34;16.10;59.70
37310;DHT22;23195;47.744;7.358;2023-04-06T14:31:10;15.90;60.20
37310;DHT22;23195;47.744;7.358;2023-04-06T14:33:50;15.90;60.70
37310;DHT22;23195;47.744;7.358;2023-04-06T14:36:17;15.80;60.60
37310;DHT22;23195;47.744;7.358;2023-04-06T14:38:42;15.60;61.30
37310;DHT22;23195;47.744;7.358;2023-04-06T14:41:18;15.40;61.70
37310;DHT22;23195;47.744;7.358;2023-04-06T14:43:46;15.20;62.00
37310;DHT22;23195;47.744;7.358;2023-04-06T14:46:12;15.10;62.60
37310;DHT22;23195;47.744;7.358;2023-04-06T14:48:38;15.20;62.70
37310;DHT22;23195;47.744;7.358;2023-04-06T14:51:05;15.10;62.20
37310;DHT22;23195;47.744;7.358;2023-04-06T14:53:34;15.10;62.40
37310;DHT22;23195;47.744;7.358;2023-04-06T14:56:00;15.10;62.60
37310;DHT22;23195;47.744;7.358;2023-04-06T14:58:26;14.90;61.70
37310;DHT22;23195;47.744;7.358;2023-04-06T15:00:59;14.70;62.00
37310;DHT22;23195;47.744;7.358;2023-04-06T15:03:27;14.80;62.40
37310;DHT22;23195;47.744;7.358;2023-04-06T15:05:53;14.60;61.60
37310;DHT22;23195;47.744;7.358;2023-04-06T15:08:21;14.70;61.00
37310;DHT22;23195;47.744;7.358;2023-04-06T15:10:53;14.50;61.60
37310;DHT22;23195;47.744;7.358;2023-04-06T15:13:22;14.50;61.80
37310;DHT22;23195;47.744;7.358;2023-04-06T15:15:50;14.40;60.90
37310;DHT22;23195;47.744;7.358;2023-04-06T15:18:17;14.40;61.00
37310;DHT22;23195;47.744;7.358;2023-04-06T15:20:45;14.20;61.80
37310;DHT22;23195;47.744;7.358;2023-04-06T15:23:11;14.00;63.80
37310;DHT22;23195;47.744;7.358;2023-04-06T15:25:38;13.80;62.70
37310;DHT22;23195;47.744;7.358;2023-04-06T15:28:09;13.80;64.10
37310;DHT22;23195;47.744;7.358;2023-04-06T15:30:36;14.00;64.00
37310;DHT22;23195;47.744;7.358;2023-04-06T15:33:03;14.20;62.90
37310;DHT22;23195;47.744;7.358;2023-04-06T15:35:30;14.30;63.70
37310;DHT22;23195;47.744;7.358;2023-04-06T15:37:59;14.30;63.30
37310;DHT22;23195;47.744;7.358;2023-04-06T15:40:30;14.50;63.00
37310;DHT22;23195;47.744;7.358;2023-04-06T15:42:56;14.50;63.10
37310;DHT22;23195;47.744;7.358;2023-04-06T15:45:25;13.10;62.70
37310;DHT22;23195;47.744;7.358;2023-04-06T15:47:54;14.40;63.80
37310;DHT22;23195;47.744;7.358;2023-04-06T15:50:25;14.40;63.30
37310;DHT22;23195;47.744;7.358;2023-04-06T15:52:52;14.40;64.20
37310;DHT22;23195;47.744;7.358;2023-04-06T15:55:22;14.50;64.50
37310;DHT22;23195;47.744;7.358;2023-04-06T15:58:04;14.40;64.50
37310;DHT22;23195;47.744;7.358;2023-04-06T16:00:32;14.50;63.20
37310;DHT22;23195;47.744;7.358;2023-04-06T16:03:17;14.40;63.70
37310;DHT22;23195;47.744;7.358;2023-04-06T16:05:43;14.30;63.80
37310;DHT22;23195;47.744;7.358;2023-04-06T16:08:12;14.30;64.50